Forest City, California
Current Conditions -  °F | °C
As of 2:03 AM on Saturday 29 Nov 2014 (Local Time) from KBLU Reporting Station
Light Rain Light Rain  
Wind Chill: 25°   Ceiling: 1100
Heat Index: 34°   Visibility: 6mi
Dew Point: 31°   Wind: 13mph
Humidity: 89%   Direction: 140°SE
Pressure: 29.89"   Gusts: 21mph
Location:  39.5164°N, 120.718°W
Report Text: KBLU 291003Z AUTO 14011G18KT 6SM -RA BR OVC011 01/M01 A2989 RMK AO2 CIG 004V015 P0001 T00111006
Loading
Personal Weather Stations






























Interactive Weather Map New forecast layout! Learn more

10-Day Weather Forecast

Advertisements
Track Severe Weather on mobile